<?xml version="1.0" encoding="UTF-8" standalone="no" ?>
<gpx xmlns="http://www.topografix.com/GPX/1/1" xmlns:xsi="http://www.w3.org/2001/XMLSchema-instance" xsi:schemaLocation="http://www.topografix.com/GPX/1/1 http://www.topografix.com/GPX/1/1/gpx.xsd" version="1.1" creator="VisuGPX - https://www.visugpx.com">
  <metadata>
    <name>Béziers lieux d'histoire et d'eaux (réalisé 16 nov 2017)</name>
    <desc><![CDATA[Rando-promenade de découverte de Béziers . Ceci est le réalisé qui est légèrement différent du prévu voir description jointe]]></desc>
  </metadata>
  <trk>
    <name><![CDATA[Béziers lieux d'histoire et d'eaux réalisé 16 nov 2017]]></name>
    <trkseg>
      <trkpt lat="43.34558" lon="3.2087">
        <ele>23.74</ele>
        <time>2017-11-16T08:03:38Z</time>
      </trkpt>
      <trkpt lat="43.34539" lon="3.20867">
        <ele>23.07</ele>
        <time>2017-11-16T08:04:01Z</time>
      </trkpt>
      <trkpt lat="43.34531" lon="3.20844">
        <ele>24.06</ele>
        <time>2017-11-16T08:04:18Z</time>
      </trkpt>
      <trkpt lat="43.34519" lon="3.20823">
        <ele>22.18</ele>
        <time>2017-11-16T08:04:45Z</time>
      </trkpt>
      <trkpt lat="43.345" lon="3.20827">
        <ele>21.76</ele>
        <time>2017-11-16T08:05:03Z</time>
      </trkpt>
      <trkpt lat="43.34488" lon="3.20845">
        <ele>22.8</ele>
        <time>2017-11-16T08:05:25Z</time>
      </trkpt>
      <trkpt lat="43.34469" lon="3.20848">
        <ele>24.8</ele>
        <time>2017-11-16T08:05:45Z</time>
      </trkpt>
      <trkpt lat="43.34458" lon="3.20868">
        <ele>36.28</ele>
        <time>2017-11-16T08:07:29Z</time>
      </trkpt>
      <trkpt lat="43.34467" lon="3.2089">
        <ele>41.62</ele>
        <time>2017-11-16T08:08:47Z</time>
      </trkpt>
      <trkpt lat="43.34477" lon="3.2091">
        <ele>47.81</ele>
        <time>2017-11-16T08:09:12Z</time>
      </trkpt>
      <trkpt lat="43.3446" lon="3.20919">
        <ele>51.15</ele>
        <time>2017-11-16T08:09:50Z</time>
      </trkpt>
      <trkpt lat="43.34465" lon="3.20943">
        <ele>64.8</ele>
        <time>2017-11-16T08:11:27Z</time>
      </trkpt>
      <trkpt lat="43.34478" lon="3.20961">
        <ele>63.6</ele>
        <time>2017-11-16T08:12:16Z</time>
      </trkpt>
      <trkpt lat="43.34483" lon="3.20985">
        <ele>61.44</ele>
        <time>2017-11-16T08:12:38Z</time>
      </trkpt>
      <trkpt lat="43.34496" lon="3.21004">
        <ele>65.6</ele>
        <time>2017-11-16T08:13:00Z</time>
      </trkpt>
      <trkpt lat="43.3451" lon="3.21021">
        <ele>69.03</ele>
        <time>2017-11-16T08:13:15Z</time>
      </trkpt>
      <trkpt lat="43.34518" lon="3.21043">
        <ele>68.75</ele>
        <time>2017-11-16T08:13:30Z</time>
      </trkpt>
      <trkpt lat="43.3452" lon="3.21069">
        <ele>67.86</ele>
        <time>2017-11-16T08:13:45Z</time>
      </trkpt>
      <trkpt lat="43.34518" lon="3.21094">
        <ele>62.83</ele>
        <time>2017-11-16T08:14:06Z</time>
      </trkpt>
      <trkpt lat="43.34507" lon="3.21116">
        <ele>62.75</ele>
        <time>2017-11-16T08:14:45Z</time>
      </trkpt>
      <trkpt lat="43.345" lon="3.21139">
        <ele>65.38</ele>
        <time>2017-11-16T08:15:03Z</time>
      </trkpt>
      <trkpt lat="43.34493" lon="3.21162">
        <ele>60.73</ele>
        <time>2017-11-16T08:15:16Z</time>
      </trkpt>
      <trkpt lat="43.34488" lon="3.21187">
        <ele>63.71</ele>
        <time>2017-11-16T08:15:36Z</time>
      </trkpt>
      <trkpt lat="43.34481" lon="3.2121">
        <ele>76.47</ele>
        <time>2017-11-16T08:16:27Z</time>
      </trkpt>
      <trkpt lat="43.34467" lon="3.21227">
        <ele>71.76</ele>
        <time>2017-11-16T08:17:17Z</time>
      </trkpt>
      <trkpt lat="43.3445" lon="3.21239">
        <ele>80.74</ele>
        <time>2017-11-16T08:17:30Z</time>
      </trkpt>
      <trkpt lat="43.34446" lon="3.21263">
        <ele>81.8</ele>
        <time>2017-11-16T08:18:04Z</time>
      </trkpt>
      <trkpt lat="43.3446" lon="3.2128">
        <ele>79.81</ele>
        <time>2017-11-16T08:18:40Z</time>
      </trkpt>
      <trkpt lat="43.34479" lon="3.21285">
        <ele>77.36</ele>
        <time>2017-11-16T08:18:53Z</time>
      </trkpt>
      <trkpt lat="43.3446" lon="3.21281">
        <ele>76.08</ele>
        <time>2017-11-16T08:22:24Z</time>
      </trkpt>
      <trkpt lat="43.34445" lon="3.21269">
        <ele>73.92</ele>
        <time>2017-11-16T08:22:52Z</time>
      </trkpt>
      <trkpt lat="43.34427" lon="3.21259">
        <ele>74.87</ele>
        <time>2017-11-16T08:23:26Z</time>
      </trkpt>
      <trkpt lat="43.34411" lon="3.21248">
        <ele>68.8</ele>
        <time>2017-11-16T08:23:46Z</time>
      </trkpt>
      <trkpt lat="43.34394" lon="3.21239">
        <ele>72.79</ele>
        <time>2017-11-16T08:24:09Z</time>
      </trkpt>
      <trkpt lat="43.34381" lon="3.21219">
        <ele>80.57</ele>
        <time>2017-11-16T08:25:14Z</time>
      </trkpt>
      <trkpt lat="43.34368" lon="3.212">
        <ele>62.96</ele>
        <time>2017-11-16T08:26:07Z</time>
      </trkpt>
      <trkpt lat="43.34352" lon="3.21187">
        <ele>75.8</ele>
        <time>2017-11-16T08:27:01Z</time>
      </trkpt>
      <trkpt lat="43.34336" lon="3.21175">
        <ele>72.83</ele>
        <time>2017-11-16T08:29:40Z</time>
      </trkpt>
      <trkpt lat="43.34318" lon="3.21183">
        <ele>73.84</ele>
        <time>2017-11-16T08:31:29Z</time>
      </trkpt>
      <trkpt lat="43.34303" lon="3.21197">
        <ele>74.36</ele>
        <time>2017-11-16T08:31:52Z</time>
      </trkpt>
      <trkpt lat="43.34302" lon="3.21222">
        <ele>75.52</ele>
        <time>2017-11-16T08:32:57Z</time>
      </trkpt>
      <trkpt lat="43.34302" lon="3.21247">
        <ele>73.42</ele>
        <time>2017-11-16T08:33:24Z</time>
      </trkpt>
      <trkpt lat="43.34292" lon="3.21268">
        <ele>66.81</ele>
        <time>2017-11-16T08:33:42Z</time>
      </trkpt>
      <trkpt lat="43.34286" lon="3.21292">
        <ele>64.83</ele>
        <time>2017-11-16T08:34:01Z</time>
      </trkpt>
      <trkpt lat="43.34272" lon="3.21308">
        <ele>67.7</ele>
        <time>2017-11-16T08:35:24Z</time>
      </trkpt>
      <trkpt lat="43.34284" lon="3.21327">
        <ele>82.23</ele>
        <time>2017-11-16T08:37:23Z</time>
      </trkpt>
      <trkpt lat="43.34297" lon="3.21309">
        <ele>76.79</ele>
        <time>2017-11-16T08:38:40Z</time>
      </trkpt>
      <trkpt lat="43.34313" lon="3.21321">
        <ele>81.11</ele>
        <time>2017-11-16T08:39:05Z</time>
      </trkpt>
      <trkpt lat="43.34329" lon="3.21332">
        <ele>77.03</ele>
        <time>2017-11-16T08:40:29Z</time>
      </trkpt>
      <trkpt lat="43.34347" lon="3.21342">
        <ele>74.11</ele>
        <time>2017-11-16T08:41:04Z</time>
      </trkpt>
      <trkpt lat="43.34363" lon="3.21353">
        <ele>72.49</ele>
        <time>2017-11-16T08:41:27Z</time>
      </trkpt>
      <trkpt lat="43.3438" lon="3.21366">
        <ele>76.1</ele>
        <time>2017-11-16T08:41:59Z</time>
      </trkpt>
      <trkpt lat="43.34397" lon="3.21374">
        <ele>78.29</ele>
        <time>2017-11-16T08:42:14Z</time>
      </trkpt>
      <trkpt lat="43.34415" lon="3.21379">
        <ele>76.41</ele>
        <time>2017-11-16T08:42:31Z</time>
      </trkpt>
      <trkpt lat="43.34431" lon="3.2139">
        <ele>85.41</ele>
        <time>2017-11-16T08:43:12Z</time>
      </trkpt>
      <trkpt lat="43.3444" lon="3.21412">
        <ele>86.54</ele>
        <time>2017-11-16T08:43:28Z</time>
      </trkpt>
      <trkpt lat="43.34453" lon="3.21429">
        <ele>81.23</ele>
        <time>2017-11-16T08:44:29Z</time>
      </trkpt>
      <trkpt lat="43.34459" lon="3.21453">
        <ele>79.8</ele>
        <time>2017-11-16T08:44:48Z</time>
      </trkpt>
      <trkpt lat="43.34465" lon="3.21476">
        <ele>71.51</ele>
        <time>2017-11-16T08:45:08Z</time>
      </trkpt>
      <trkpt lat="43.3447" lon="3.21502">
        <ele>67.41</ele>
        <time>2017-11-16T08:45:22Z</time>
      </trkpt>
      <trkpt lat="43.34465" lon="3.21526">
        <ele>73.8</ele>
        <time>2017-11-16T08:46:52Z</time>
      </trkpt>
      <trkpt lat="43.34456" lon="3.21548">
        <ele>87.53</ele>
        <time>2017-11-16T08:47:54Z</time>
      </trkpt>
      <trkpt lat="43.34439" lon="3.21558">
        <ele>89.77</ele>
        <time>2017-11-16T08:48:09Z</time>
      </trkpt>
      <trkpt lat="43.34424" lon="3.21573">
        <ele>74.26</ele>
        <time>2017-11-16T08:48:37Z</time>
      </trkpt>
      <trkpt lat="43.34407" lon="3.21581">
        <ele>76.41</ele>
        <time>2017-11-16T08:48:55Z</time>
      </trkpt>
      <trkpt lat="43.34403" lon="3.21606">
        <ele>73.59</ele>
        <time>2017-11-16T08:50:24Z</time>
      </trkpt>
      <trkpt lat="43.3439" lon="3.21622">
        <ele>74.72</ele>
        <time>2017-11-16T08:50:51Z</time>
      </trkpt>
      <trkpt lat="43.34372" lon="3.21629">
        <ele>76.38</ele>
        <time>2017-11-16T08:51:28Z</time>
      </trkpt>
      <trkpt lat="43.34358" lon="3.21644">
        <ele>78.62</ele>
        <time>2017-11-16T08:52:01Z</time>
      </trkpt>
      <trkpt lat="43.3434" lon="3.2165">
        <ele>71.97</ele>
        <time>2017-11-16T08:52:34Z</time>
      </trkpt>
      <trkpt lat="43.34323" lon="3.21663">
        <ele>69.81</ele>
        <time>2017-11-16T08:52:48Z</time>
      </trkpt>
      <trkpt lat="43.34309" lon="3.21678">
        <ele>76.77</ele>
        <time>2017-11-16T08:53:12Z</time>
      </trkpt>
      <trkpt lat="43.34292" lon="3.2169">
        <ele>76.81</ele>
        <time>2017-11-16T08:53:34Z</time>
      </trkpt>
      <trkpt lat="43.34274" lon="3.21692">
        <ele>65.79</ele>
        <time>2017-11-16T08:54:41Z</time>
      </trkpt>
      <trkpt lat="43.3426" lon="3.21708">
        <ele>71.11</ele>
        <time>2017-11-16T08:55:22Z</time>
      </trkpt>
      <trkpt lat="43.34246" lon="3.21726">
        <ele>73.04</ele>
        <time>2017-11-16T08:55:47Z</time>
      </trkpt>
      <trkpt lat="43.34228" lon="3.21725">
        <ele>69.89</ele>
        <time>2017-11-16T08:56:27Z</time>
      </trkpt>
      <trkpt lat="43.34214" lon="3.2174">
        <ele>78.81</ele>
        <time>2017-11-16T08:57:02Z</time>
      </trkpt>
      <trkpt lat="43.34197" lon="3.21749">
        <ele>80.78</ele>
        <time>2017-11-16T08:57:29Z</time>
      </trkpt>
      <trkpt lat="43.34182" lon="3.21764">
        <ele>72.08</ele>
        <time>2017-11-16T08:57:54Z</time>
      </trkpt>
      <trkpt lat="43.34167" lon="3.2178">
        <ele>68.1</ele>
        <time>2017-11-16T08:58:29Z</time>
      </trkpt>
      <trkpt lat="43.34151" lon="3.21794">
        <ele>66.27</ele>
        <time>2017-11-16T08:59:04Z</time>
      </trkpt>
      <trkpt lat="43.34136" lon="3.21807">
        <ele>70.19</ele>
        <time>2017-11-16T08:59:36Z</time>
      </trkpt>
      <trkpt lat="43.34118" lon="3.21808">
        <ele>66.57</ele>
        <time>2017-11-16T09:00:01Z</time>
      </trkpt>
      <trkpt lat="43.34102" lon="3.21822">
        <ele>59.93</ele>
        <time>2017-11-16T09:00:17Z</time>
      </trkpt>
      <trkpt lat="43.34085" lon="3.21827">
        <ele>70</ele>
        <time>2017-11-16T09:01:15Z</time>
      </trkpt>
      <trkpt lat="43.34068" lon="3.21837">
        <ele>69.52</ele>
        <time>2017-11-16T09:01:33Z</time>
      </trkpt>
      <trkpt lat="43.3405" lon="3.21845">
        <ele>68.11</ele>
        <time>2017-11-16T09:01:54Z</time>
      </trkpt>
      <trkpt lat="43.34017" lon="3.21859">
        <ele>66.8</ele>
        <time>2017-11-16T09:02:22Z</time>
      </trkpt>
      <trkpt lat="43.33987" lon="3.21889">
        <ele>66.38</ele>
        <time>2017-11-16T09:02:57Z</time>
      </trkpt>
      <trkpt lat="43.33969" lon="3.21893">
        <ele>63.8</ele>
        <time>2017-11-16T09:03:23Z</time>
      </trkpt>
      <trkpt lat="43.33955" lon="3.21909">
        <ele>63.3</ele>
        <time>2017-11-16T09:03:49Z</time>
      </trkpt>
      <trkpt lat="43.33938" lon="3.21924">
        <ele>59.96</ele>
        <time>2017-11-16T09:04:06Z</time>
      </trkpt>
      <trkpt lat="43.33921" lon="3.21934">
        <ele>55.48</ele>
        <time>2017-11-16T09:05:12Z</time>
      </trkpt>
      <trkpt lat="43.3391" lon="3.21952">
        <ele>54.89</ele>
        <time>2017-11-16T09:05:34Z</time>
      </trkpt>
      <trkpt lat="43.33903" lon="3.21976">
        <ele>60.5</ele>
        <time>2017-11-16T09:06:24Z</time>
      </trkpt>
      <trkpt lat="43.33893" lon="3.21997">
        <ele>49.98</ele>
        <time>2017-11-16T09:06:56Z</time>
      </trkpt>
      <trkpt lat="43.33875" lon="3.22005">
        <ele>53.57</ele>
        <time>2017-11-16T09:07:38Z</time>
      </trkpt>
      <trkpt lat="43.33858" lon="3.22013">
        <ele>54.8</ele>
        <time>2017-11-16T09:08:15Z</time>
      </trkpt>
      <trkpt lat="43.33843" lon="3.22027">
        <ele>52.81</ele>
        <time>2017-11-16T09:09:06Z</time>
      </trkpt>
      <trkpt lat="43.33848" lon="3.22003">
        <ele>56.73</ele>
        <time>2017-11-16T09:12:44Z</time>
      </trkpt>
      <trkpt lat="43.33855" lon="3.21978">
        <ele>48.83</ele>
        <time>2017-11-16T09:13:08Z</time>
      </trkpt>
      <trkpt lat="43.3387" lon="3.21963">
        <ele>51.8</ele>
        <time>2017-11-16T09:13:32Z</time>
      </trkpt>
      <trkpt lat="43.33886" lon="3.21949">
        <ele>50.5</ele>
        <time>2017-11-16T09:13:51Z</time>
      </trkpt>
      <trkpt lat="43.33889" lon="3.21924">
        <ele>57.9</ele>
        <time>2017-11-16T09:14:17Z</time>
      </trkpt>
      <trkpt lat="43.33901" lon="3.21905">
        <ele>62.01</ele>
        <time>2017-11-16T09:15:09Z</time>
      </trkpt>
      <trkpt lat="43.33919" lon="3.21897">
        <ele>63.52</ele>
        <time>2017-11-16T09:16:47Z</time>
      </trkpt>
      <trkpt lat="43.33937" lon="3.21892">
        <ele>58.16</ele>
        <time>2017-11-16T09:17:21Z</time>
      </trkpt>
      <trkpt lat="43.33954" lon="3.21885">
        <ele>56.23</ele>
        <time>2017-11-16T09:17:47Z</time>
      </trkpt>
      <trkpt lat="43.33961" lon="3.21855">
        <ele>58.11</ele>
        <time>2017-11-16T09:18:06Z</time>
      </trkpt>
      <trkpt lat="43.34007" lon="3.21863">
        <ele>58.3</ele>
        <time>2017-11-16T09:18:32Z</time>
      </trkpt>
      <trkpt lat="43.34024" lon="3.21852">
        <ele>55.29</ele>
        <time>2017-11-16T09:19:05Z</time>
      </trkpt>
      <trkpt lat="43.34039" lon="3.21838">
        <ele>57.63</ele>
        <time>2017-11-16T09:19:25Z</time>
      </trkpt>
      <trkpt lat="43.34056" lon="3.21828">
        <ele>62.9</ele>
        <time>2017-11-16T09:19:58Z</time>
      </trkpt>
      <trkpt lat="43.34074" lon="3.21826">
        <ele>70.78</ele>
        <time>2017-11-16T09:20:24Z</time>
      </trkpt>
      <trkpt lat="43.3409" lon="3.21813">
        <ele>69.96</ele>
        <time>2017-11-16T09:20:44Z</time>
      </trkpt>
      <trkpt lat="43.34109" lon="3.21809">
        <ele>65.11</ele>
        <time>2017-11-16T09:21:12Z</time>
      </trkpt>
      <trkpt lat="43.34126" lon="3.21801">
        <ele>62.51</ele>
        <time>2017-11-16T09:21:34Z</time>
      </trkpt>
      <trkpt lat="43.34136" lon="3.2178">
        <ele>69.38</ele>
        <time>2017-11-16T09:21:56Z</time>
      </trkpt>
      <trkpt lat="43.34154" lon="3.21775">
        <ele>67.12</ele>
        <time>2017-11-16T09:22:16Z</time>
      </trkpt>
      <trkpt lat="43.34168" lon="3.21759">
        <ele>72.48</ele>
        <time>2017-11-16T09:22:44Z</time>
      </trkpt>
      <trkpt lat="43.34175" lon="3.21735">
        <ele>64.72</ele>
        <time>2017-11-16T09:25:08Z</time>
      </trkpt>
      <trkpt lat="43.34191" lon="3.21723">
        <ele>67.45</ele>
        <time>2017-11-16T09:25:30Z</time>
      </trkpt>
      <trkpt lat="43.34194" lon="3.21698">
        <ele>74.45</ele>
        <time>2017-11-16T09:26:05Z</time>
      </trkpt>
      <trkpt lat="43.34186" lon="3.21676">
        <ele>74.56</ele>
        <time>2017-11-16T09:26:23Z</time>
      </trkpt>
      <trkpt lat="43.34178" lon="3.21654">
        <ele>75.65</ele>
        <time>2017-11-16T09:26:40Z</time>
      </trkpt>
      <trkpt lat="43.34173" lon="3.2163">
        <ele>71.94</ele>
        <time>2017-11-16T09:26:55Z</time>
      </trkpt>
      <trkpt lat="43.34167" lon="3.21606">
        <ele>71.59</ele>
        <time>2017-11-16T09:27:17Z</time>
      </trkpt>
      <trkpt lat="43.34166" lon="3.21581">
        <ele>70.49</ele>
        <time>2017-11-16T09:27:41Z</time>
      </trkpt>
      <trkpt lat="43.34166" lon="3.21556">
        <ele>74.77</ele>
        <time>2017-11-16T09:28:18Z</time>
      </trkpt>
      <trkpt lat="43.34169" lon="3.2153">
        <ele>73.46</ele>
        <time>2017-11-16T09:28:46Z</time>
      </trkpt>
      <trkpt lat="43.34179" lon="3.21509">
        <ele>67.74</ele>
        <time>2017-11-16T09:29:30Z</time>
      </trkpt>
      <trkpt lat="43.34193" lon="3.21489">
        <ele>61.97</ele>
        <time>2017-11-16T09:29:56Z</time>
      </trkpt>
      <trkpt lat="43.34194" lon="3.21464">
        <ele>54.43</ele>
        <time>2017-11-16T09:30:19Z</time>
      </trkpt>
      <trkpt lat="43.34199" lon="3.21439">
        <ele>63.71</ele>
        <time>2017-11-16T09:30:42Z</time>
      </trkpt>
      <trkpt lat="43.34194" lon="3.21415">
        <ele>62.41</ele>
        <time>2017-11-16T09:31:01Z</time>
      </trkpt>
      <trkpt lat="43.34201" lon="3.2139">
        <ele>70.5</ele>
        <time>2017-11-16T09:31:39Z</time>
      </trkpt>
      <trkpt lat="43.3421" lon="3.21369">
        <ele>64.91</ele>
        <time>2017-11-16T09:31:51Z</time>
      </trkpt>
      <trkpt lat="43.34211" lon="3.21343">
        <ele>70.17</ele>
        <time>2017-11-16T09:32:15Z</time>
      </trkpt>
      <trkpt lat="43.34201" lon="3.21321">
        <ele>75.7</ele>
        <time>2017-11-16T09:32:30Z</time>
      </trkpt>
      <trkpt lat="43.34194" lon="3.21298">
        <ele>75.5</ele>
        <time>2017-11-16T09:33:14Z</time>
      </trkpt>
      <trkpt lat="43.34203" lon="3.21277">
        <ele>82.87</ele>
        <time>2017-11-16T09:33:55Z</time>
      </trkpt>
      <trkpt lat="43.34203" lon="3.21249">
        <ele>75.43</ele>
        <time>2017-11-16T09:35:04Z</time>
      </trkpt>
      <trkpt lat="43.34203" lon="3.21222">
        <ele>69.13</ele>
        <time>2017-11-16T09:35:11Z</time>
      </trkpt>
      <trkpt lat="43.34211" lon="3.21198">
        <ele>68.52</ele>
        <time>2017-11-16T09:35:17Z</time>
      </trkpt>
      <trkpt lat="43.34199" lon="3.2118">
        <ele>66.97</ele>
        <time>2017-11-16T09:35:31Z</time>
      </trkpt>
      <trkpt lat="43.34198" lon="3.21155">
        <ele>68.47</ele>
        <time>2017-11-16T09:35:52Z</time>
      </trkpt>
      <trkpt lat="43.34188" lon="3.21133">
        <ele>83.35</ele>
        <time>2017-11-16T09:36:14Z</time>
      </trkpt>
      <trkpt lat="43.34176" lon="3.21114">
        <ele>85.47</ele>
        <time>2017-11-16T09:36:33Z</time>
      </trkpt>
      <trkpt lat="43.34167" lon="3.21092">
        <ele>81.96</ele>
        <time>2017-11-16T09:36:49Z</time>
      </trkpt>
      <trkpt lat="43.34162" lon="3.21068">
        <ele>74.65</ele>
        <time>2017-11-16T09:37:17Z</time>
      </trkpt>
      <trkpt lat="43.34162" lon="3.21044">
        <ele>68.42</ele>
        <time>2017-11-16T09:38:38Z</time>
      </trkpt>
      <trkpt lat="43.3416" lon="3.21018">
        <ele>78.74</ele>
        <time>2017-11-16T09:38:56Z</time>
      </trkpt>
      <trkpt lat="43.34206" lon="3.21004">
        <ele>79.51</ele>
        <time>2017-11-16T09:44:50Z</time>
      </trkpt>
      <trkpt lat="43.34178" lon="3.20992">
        <ele>77.59</ele>
        <time>2017-11-16T09:44:57Z</time>
      </trkpt>
      <trkpt lat="43.34169" lon="3.2097">
        <ele>66.19</ele>
        <time>2017-11-16T09:46:12Z</time>
      </trkpt>
      <trkpt lat="43.34185" lon="3.20957">
        <ele>66.44</ele>
        <time>2017-11-16T09:46:30Z</time>
      </trkpt>
      <trkpt lat="43.342" lon="3.2094">
        <ele>64.96</ele>
        <time>2017-11-16T09:46:56Z</time>
      </trkpt>
      <trkpt lat="43.34217" lon="3.20932">
        <ele>69.81</ele>
        <time>2017-11-16T09:47:38Z</time>
      </trkpt>
      <trkpt lat="43.342" lon="3.20935">
        <ele>75.75</ele>
        <time>2017-11-16T09:53:31Z</time>
      </trkpt>
      <trkpt lat="43.34185" lon="3.20951">
        <ele>72.17</ele>
        <time>2017-11-16T09:53:54Z</time>
      </trkpt>
      <trkpt lat="43.34168" lon="3.20961">
        <ele>72.08</ele>
        <time>2017-11-16T09:54:17Z</time>
      </trkpt>
      <trkpt lat="43.34152" lon="3.20974">
        <ele>65.02</ele>
        <time>2017-11-16T09:54:38Z</time>
      </trkpt>
      <trkpt lat="43.34108" lon="3.20988">
        <ele>67.01</ele>
        <time>2017-11-16T09:55:30Z</time>
      </trkpt>
      <trkpt lat="43.34096" lon="3.21007">
        <ele>66.86</ele>
        <time>2017-11-16T09:58:07Z</time>
      </trkpt>
      <trkpt lat="43.34113" lon="3.20993">
        <ele>60.59</ele>
        <time>2017-11-16T10:05:31Z</time>
      </trkpt>
      <trkpt lat="43.34129" lon="3.20979">
        <ele>59.81</ele>
        <time>2017-11-16T10:05:36Z</time>
      </trkpt>
      <trkpt lat="43.34138" lon="3.20952">
        <ele>61.9</ele>
        <time>2017-11-16T10:06:04Z</time>
      </trkpt>
      <trkpt lat="43.34155" lon="3.20961">
        <ele>66.76</ele>
        <time>2017-11-16T10:06:44Z</time>
      </trkpt>
      <trkpt lat="43.34169" lon="3.20978">
        <ele>65.76</ele>
        <time>2017-11-16T10:07:01Z</time>
      </trkpt>
      <trkpt lat="43.34177" lon="3.21001">
        <ele>74.76</ele>
        <time>2017-11-16T10:07:28Z</time>
      </trkpt>
      <trkpt lat="43.3418" lon="3.21027">
        <ele>77.56</ele>
        <time>2017-11-16T10:07:53Z</time>
      </trkpt>
      <trkpt lat="43.34174" lon="3.21052">
        <ele>70.44</ele>
        <time>2017-11-16T10:08:17Z</time>
      </trkpt>
      <trkpt lat="43.3416" lon="3.21069">
        <ele>72.8</ele>
        <time>2017-11-16T10:08:42Z</time>
      </trkpt>
      <trkpt lat="43.34147" lon="3.21085">
        <ele>79.1</ele>
        <time>2017-11-16T10:09:47Z</time>
      </trkpt>
      <trkpt lat="43.3414" lon="3.21108">
        <ele>76.97</ele>
        <time>2017-11-16T10:10:00Z</time>
      </trkpt>
      <trkpt lat="43.34128" lon="3.21128">
        <ele>81.5</ele>
        <time>2017-11-16T10:10:22Z</time>
      </trkpt>
      <trkpt lat="43.34109" lon="3.21136">
        <ele>78.55</ele>
        <time>2017-11-16T10:10:33Z</time>
      </trkpt>
      <trkpt lat="43.34091" lon="3.21143">
        <ele>77.6</ele>
        <time>2017-11-16T10:11:42Z</time>
      </trkpt>
      <trkpt lat="43.34068" lon="3.21167">
        <ele>81.42</ele>
        <time>2017-11-16T10:11:45Z</time>
      </trkpt>
      <trkpt lat="43.3407" lon="3.21194">
        <ele>85.51</ele>
        <time>2017-11-16T10:11:55Z</time>
      </trkpt>
      <trkpt lat="43.34064" lon="3.2122">
        <ele>70.38</ele>
        <time>2017-11-16T10:12:11Z</time>
      </trkpt>
      <trkpt lat="43.34082" lon="3.21232">
        <ele>75.4</ele>
        <time>2017-11-16T10:12:17Z</time>
      </trkpt>
      <trkpt lat="43.34064" lon="3.2124">
        <ele>70.71</ele>
        <time>2017-11-16T10:12:27Z</time>
      </trkpt>
      <trkpt lat="43.3405" lon="3.21257">
        <ele>64.25</ele>
        <time>2017-11-16T10:13:16Z</time>
      </trkpt>
      <trkpt lat="43.34043" lon="3.2128">
        <ele>65.75</ele>
        <time>2017-11-16T10:13:22Z</time>
      </trkpt>
      <trkpt lat="43.34029" lon="3.21298">
        <ele>64.9</ele>
        <time>2017-11-16T10:13:32Z</time>
      </trkpt>
      <trkpt lat="43.34052" lon="3.21304">
        <ele>64.72</ele>
        <time>2017-11-16T10:13:38Z</time>
      </trkpt>
      <trkpt lat="43.34041" lon="3.21324">
        <ele>62.84</ele>
        <time>2017-11-16T10:13:48Z</time>
      </trkpt>
      <trkpt lat="43.34022" lon="3.21322">
        <ele>62.5</ele>
        <time>2017-11-16T10:14:00Z</time>
      </trkpt>
      <trkpt lat="43.3401" lon="3.21341">
        <ele>64.89</ele>
        <time>2017-11-16T10:14:21Z</time>
      </trkpt>
      <trkpt lat="43.34023" lon="3.21358">
        <ele>57.24</ele>
        <time>2017-11-16T10:14:37Z</time>
      </trkpt>
      <trkpt lat="43.34021" lon="3.21384">
        <ele>54.2</ele>
        <time>2017-11-16T10:15:50Z</time>
      </trkpt>
      <trkpt lat="43.3402" lon="3.21411">
        <ele>50.53</ele>
        <time>2017-11-16T10:16:00Z</time>
      </trkpt>
      <trkpt lat="43.33997" lon="3.21432">
        <ele>53.73</ele>
        <time>2017-11-16T10:17:34Z</time>
      </trkpt>
      <trkpt lat="43.33979" lon="3.21426">
        <ele>56.14</ele>
        <time>2017-11-16T10:17:49Z</time>
      </trkpt>
      <trkpt lat="43.33979" lon="3.21402">
        <ele>52.71</ele>
        <time>2017-11-16T10:19:49Z</time>
      </trkpt>
      <trkpt lat="43.33989" lon="3.21422">
        <ele>46.49</ele>
        <time>2017-11-16T10:22:01Z</time>
      </trkpt>
      <trkpt lat="43.33972" lon="3.2143">
        <ele>44.73</ele>
        <time>2017-11-16T10:22:41Z</time>
      </trkpt>
      <trkpt lat="43.33961" lon="3.2145">
        <ele>48.6</ele>
        <time>2017-11-16T10:23:08Z</time>
      </trkpt>
      <trkpt lat="43.33942" lon="3.2146">
        <ele>48.09</ele>
        <time>2017-11-16T10:23:24Z</time>
      </trkpt>
      <trkpt lat="43.33923" lon="3.21456">
        <ele>51.19</ele>
        <time>2017-11-16T10:24:00Z</time>
      </trkpt>
      <trkpt lat="43.33906" lon="3.21448">
        <ele>49.8</ele>
        <time>2017-11-16T10:24:14Z</time>
      </trkpt>
      <trkpt lat="43.33911" lon="3.21423">
        <ele>49.8</ele>
        <time>2017-11-16T10:24:24Z</time>
      </trkpt>
      <trkpt lat="43.33899" lon="3.21404">
        <ele>61.85</ele>
        <time>2017-11-16T10:25:09Z</time>
      </trkpt>
      <trkpt lat="43.33884" lon="3.21389">
        <ele>52.71</ele>
        <time>2017-11-16T10:26:38Z</time>
      </trkpt>
      <trkpt lat="43.33866" lon="3.21393">
        <ele>58.22</ele>
        <time>2017-11-16T10:26:58Z</time>
      </trkpt>
      <trkpt lat="43.33848" lon="3.21402">
        <ele>53.04</ele>
        <time>2017-11-16T10:27:23Z</time>
      </trkpt>
      <trkpt lat="43.3383" lon="3.21405">
        <ele>53.1</ele>
        <time>2017-11-16T10:27:39Z</time>
      </trkpt>
      <trkpt lat="43.33813" lon="3.21395">
        <ele>49.79</ele>
        <time>2017-11-16T10:28:01Z</time>
      </trkpt>
      <trkpt lat="43.33799" lon="3.21379">
        <ele>58.71</ele>
        <time>2017-11-16T10:28:26Z</time>
      </trkpt>
      <trkpt lat="43.3381" lon="3.21359">
        <ele>52.98</ele>
        <time>2017-11-16T10:30:30Z</time>
      </trkpt>
      <trkpt lat="43.3381" lon="3.21333">
        <ele>37.41</ele>
        <time>2017-11-16T10:31:56Z</time>
      </trkpt>
      <trkpt lat="43.33809" lon="3.21308">
        <ele>29.65</ele>
        <time>2017-11-16T10:32:43Z</time>
      </trkpt>
      <trkpt lat="43.33822" lon="3.21289">
        <ele>23.22</ele>
        <time>2017-11-16T10:33:02Z</time>
      </trkpt>
      <trkpt lat="43.33833" lon="3.21268">
        <ele>33.12</ele>
        <time>2017-11-16T10:33:27Z</time>
      </trkpt>
      <trkpt lat="43.33846" lon="3.21249">
        <ele>23.69</ele>
        <time>2017-11-16T10:33:42Z</time>
      </trkpt>
      <trkpt lat="43.33851" lon="3.21224">
        <ele>24.74</ele>
        <time>2017-11-16T10:33:55Z</time>
      </trkpt>
      <trkpt lat="43.33867" lon="3.21211">
        <ele>36.79</ele>
        <time>2017-11-16T10:34:15Z</time>
      </trkpt>
      <trkpt lat="43.33879" lon="3.21191">
        <ele>28.74</ele>
        <time>2017-11-16T10:34:35Z</time>
      </trkpt>
      <trkpt lat="43.33885" lon="3.21166">
        <ele>33.02</ele>
        <time>2017-11-16T10:35:08Z</time>
      </trkpt>
      <trkpt lat="43.33876" lon="3.21145">
        <ele>35.11</ele>
        <time>2017-11-16T10:35:39Z</time>
      </trkpt>
      <trkpt lat="43.33865" lon="3.21124">
        <ele>26.82</ele>
        <time>2017-11-16T10:35:54Z</time>
      </trkpt>
      <trkpt lat="43.33853" lon="3.21106">
        <ele>21.82</ele>
        <time>2017-11-16T10:36:12Z</time>
      </trkpt>
      <trkpt lat="43.33851" lon="3.21081">
        <ele>21.83</ele>
        <time>2017-11-16T10:36:35Z</time>
      </trkpt>
      <trkpt lat="43.33842" lon="3.21059">
        <ele>9.24</ele>
        <time>2017-11-16T10:36:50Z</time>
      </trkpt>
      <trkpt lat="43.33832" lon="3.21037">
        <ele>12.19</ele>
        <time>2017-11-16T10:37:04Z</time>
      </trkpt>
      <trkpt lat="43.33815" lon="3.21026">
        <ele>11.97</ele>
        <time>2017-11-16T10:37:21Z</time>
      </trkpt>
      <trkpt lat="43.33797" lon="3.21029">
        <ele>12.1</ele>
        <time>2017-11-16T10:38:35Z</time>
      </trkpt>
      <trkpt lat="43.33786" lon="3.2105">
        <ele>11.8</ele>
        <time>2017-11-16T10:38:59Z</time>
      </trkpt>
      <trkpt lat="43.3378" lon="3.21079">
        <ele>17.16</ele>
        <time>2017-11-16T10:39:09Z</time>
      </trkpt>
      <trkpt lat="43.33776" lon="3.21103">
        <ele>13.23</ele>
        <time>2017-11-16T10:39:13Z</time>
      </trkpt>
      <trkpt lat="43.33769" lon="3.21062">
        <ele>23.3</ele>
        <time>2017-11-16T10:39:22Z</time>
      </trkpt>
      <trkpt lat="43.33753" lon="3.21076">
        <ele>14.22</ele>
        <time>2017-11-16T10:39:34Z</time>
      </trkpt>
      <trkpt lat="43.33745" lon="3.21098">
        <ele>3.19</ele>
        <time>2017-11-16T10:39:58Z</time>
      </trkpt>
      <trkpt lat="43.33727" lon="3.21104">
        <ele>11.32</ele>
        <time>2017-11-16T10:40:12Z</time>
      </trkpt>
      <trkpt lat="43.33714" lon="3.21121">
        <ele>11.8</ele>
        <time>2017-11-16T10:41:05Z</time>
      </trkpt>
      <trkpt lat="43.33725" lon="3.21142">
        <ele>16.11</ele>
        <time>2017-11-16T10:41:17Z</time>
      </trkpt>
      <trkpt lat="43.33708" lon="3.21147">
        <ele>10.81</ele>
        <time>2017-11-16T10:41:24Z</time>
      </trkpt>
      <trkpt lat="43.33693" lon="3.21163">
        <ele>6.41</ele>
        <time>2017-11-16T10:41:40Z</time>
      </trkpt>
      <trkpt lat="43.33675" lon="3.21169">
        <ele>5.99</ele>
        <time>2017-11-16T10:41:57Z</time>
      </trkpt>
      <trkpt lat="43.33659" lon="3.21181">
        <ele>12.48</ele>
        <time>2017-11-16T10:42:22Z</time>
      </trkpt>
      <trkpt lat="43.33645" lon="3.21198">
        <ele>11.18</ele>
        <time>2017-11-16T10:42:47Z</time>
      </trkpt>
      <trkpt lat="43.3363" lon="3.21213">
        <ele>8.59</ele>
        <time>2017-11-16T10:43:14Z</time>
      </trkpt>
      <trkpt lat="43.33613" lon="3.21221">
        <ele>12.82</ele>
        <time>2017-11-16T10:43:35Z</time>
      </trkpt>
      <trkpt lat="43.33597" lon="3.21234">
        <ele>12.19</ele>
        <time>2017-11-16T10:43:55Z</time>
      </trkpt>
      <trkpt lat="43.33582" lon="3.21249">
        <ele>16.96</ele>
        <time>2017-11-16T10:44:15Z</time>
      </trkpt>
      <trkpt lat="43.33574" lon="3.21273">
        <ele>6.04</ele>
        <time>2017-11-16T10:44:32Z</time>
      </trkpt>
      <trkpt lat="43.33557" lon="3.21287">
        <ele>8.81</ele>
        <time>2017-11-16T10:44:52Z</time>
      </trkpt>
      <trkpt lat="43.33541" lon="3.21301">
        <ele>14.66</ele>
        <time>2017-11-16T10:45:29Z</time>
      </trkpt>
      <trkpt lat="43.33534" lon="3.21325">
        <ele>11.9</ele>
        <time>2017-11-16T10:45:46Z</time>
      </trkpt>
      <trkpt lat="43.33534" lon="3.2135">
        <ele>12.82</ele>
        <time>2017-11-16T10:47:18Z</time>
      </trkpt>
      <trkpt lat="43.33537" lon="3.21375">
        <ele>14.8</ele>
        <time>2017-11-16T10:48:13Z</time>
      </trkpt>
      <trkpt lat="43.33546" lon="3.21397">
        <ele>18.4</ele>
        <time>2017-11-16T10:48:40Z</time>
      </trkpt>
      <trkpt lat="43.33554" lon="3.2142">
        <ele>16.71</ele>
        <time>2017-11-16T10:48:58Z</time>
      </trkpt>
      <trkpt lat="43.33557" lon="3.21445">
        <ele>16.26</ele>
        <time>2017-11-16T10:49:21Z</time>
      </trkpt>
      <trkpt lat="43.33557" lon="3.2147">
        <ele>12.71</ele>
        <time>2017-11-16T10:49:38Z</time>
      </trkpt>
      <trkpt lat="43.33554" lon="3.21495">
        <ele>17.73</ele>
        <time>2017-11-16T10:50:00Z</time>
      </trkpt>
      <trkpt lat="43.33544" lon="3.21517">
        <ele>21.83</ele>
        <time>2017-11-16T10:50:43Z</time>
      </trkpt>
      <trkpt lat="43.33533" lon="3.21538">
        <ele>21.7</ele>
        <time>2017-11-16T10:50:59Z</time>
      </trkpt>
      <trkpt lat="43.33531" lon="3.21563">
        <ele>28.29</ele>
        <time>2017-11-16T10:51:36Z</time>
      </trkpt>
      <trkpt lat="43.33529" lon="3.2159">
        <ele>19.9</ele>
        <time>2017-11-16T10:51:56Z</time>
      </trkpt>
      <trkpt lat="43.33522" lon="3.21614">
        <ele>27.5</ele>
        <time>2017-11-16T10:52:20Z</time>
      </trkpt>
      <trkpt lat="43.33511" lon="3.21634">
        <ele>17.02</ele>
        <time>2017-11-16T10:52:40Z</time>
      </trkpt>
      <trkpt lat="43.33503" lon="3.21658">
        <ele>10.19</ele>
        <time>2017-11-16T10:53:05Z</time>
      </trkpt>
      <trkpt lat="43.33494" lon="3.2168">
        <ele>14.78</ele>
        <time>2017-11-16T10:53:30Z</time>
      </trkpt>
      <trkpt lat="43.33488" lon="3.21704">
        <ele>14.99</ele>
        <time>2017-11-16T10:53:51Z</time>
      </trkpt>
      <trkpt lat="43.33482" lon="3.21728">
        <ele>13.84</ele>
        <time>2017-11-16T10:54:06Z</time>
      </trkpt>
      <trkpt lat="43.33477" lon="3.21752">
        <ele>7.07</ele>
        <time>2017-11-16T10:54:28Z</time>
      </trkpt>
      <trkpt lat="43.33472" lon="3.21776">
        <ele>4.79</ele>
        <time>2017-11-16T10:54:45Z</time>
      </trkpt>
      <trkpt lat="43.33462" lon="3.21797">
        <ele>11.11</ele>
        <time>2017-11-16T10:55:06Z</time>
      </trkpt>
      <trkpt lat="43.33453" lon="3.21819">
        <ele>11.86</ele>
        <time>2017-11-16T10:55:25Z</time>
      </trkpt>
      <trkpt lat="43.33447" lon="3.21842">
        <ele>10.01</ele>
        <time>2017-11-16T10:55:48Z</time>
      </trkpt>
      <trkpt lat="43.33439" lon="3.21865">
        <ele>6.57</ele>
        <time>2017-11-16T10:56:10Z</time>
      </trkpt>
      <trkpt lat="43.33433" lon="3.21889">
        <ele>5.59</ele>
        <time>2017-11-16T10:56:39Z</time>
      </trkpt>
      <trkpt lat="43.33421" lon="3.21907">
        <ele>9.42</ele>
        <time>2017-11-16T10:57:00Z</time>
      </trkpt>
      <trkpt lat="43.33417" lon="3.21932">
        <ele>6.83</ele>
        <time>2017-11-16T10:57:17Z</time>
      </trkpt>
      <trkpt lat="43.33408" lon="3.21955">
        <ele>10.99</ele>
        <time>2017-11-16T10:57:40Z</time>
      </trkpt>
      <trkpt lat="43.33398" lon="3.21975">
        <ele>13.75</ele>
        <time>2017-11-16T10:58:03Z</time>
      </trkpt>
      <trkpt lat="43.33396" lon="3.22001">
        <ele>13.46</ele>
        <time>2017-11-16T10:58:23Z</time>
      </trkpt>
      <trkpt lat="43.33403" lon="3.22025">
        <ele>12.47</ele>
        <time>2017-11-16T10:58:45Z</time>
      </trkpt>
      <trkpt lat="43.33414" lon="3.22045">
        <ele>12.06</ele>
        <time>2017-11-16T10:59:34Z</time>
      </trkpt>
      <trkpt lat="43.33431" lon="3.22052">
        <ele>13.43</ele>
        <time>2017-11-16T11:02:47Z</time>
      </trkpt>
      <trkpt lat="43.33416" lon="3.22038">
        <ele>22.48</ele>
        <time>2017-11-16T11:13:06Z</time>
      </trkpt>
      <trkpt lat="43.3343" lon="3.22054">
        <ele>17.09</ele>
        <time>2017-11-16T11:39:59Z</time>
      </trkpt>
      <trkpt lat="43.33441" lon="3.22033">
        <ele>3.91</ele>
        <time>2017-11-16T11:53:54Z</time>
      </trkpt>
      <trkpt lat="43.3343" lon="3.22052">
        <ele>0.8</ele>
        <time>2017-11-16T12:08:47Z</time>
      </trkpt>
      <trkpt lat="43.33414" lon="3.2204">
        <ele>18.8</ele>
        <time>2017-11-16T13:26:50Z</time>
      </trkpt>
      <trkpt lat="43.33396" lon="3.22044">
        <ele>9.73</ele>
        <time>2017-11-16T13:28:21Z</time>
      </trkpt>
      <trkpt lat="43.33387" lon="3.22065">
        <ele>12.11</ele>
        <time>2017-11-16T13:28:51Z</time>
      </trkpt>
      <trkpt lat="43.33374" lon="3.22083">
        <ele>12.51</ele>
        <time>2017-11-16T13:29:10Z</time>
      </trkpt>
      <trkpt lat="43.33361" lon="3.221">
        <ele>12.56</ele>
        <time>2017-11-16T13:29:30Z</time>
      </trkpt>
      <trkpt lat="43.33355" lon="3.22125">
        <ele>13.11</ele>
        <time>2017-11-16T13:29:56Z</time>
      </trkpt>
      <trkpt lat="43.33351" lon="3.2215">
        <ele>6.12</ele>
        <time>2017-11-16T13:30:22Z</time>
      </trkpt>
      <trkpt lat="43.3334" lon="3.2217">
        <ele>12.39</ele>
        <time>2017-11-16T13:30:47Z</time>
      </trkpt>
      <trkpt lat="43.33322" lon="3.22169">
        <ele>17.96</ele>
        <time>2017-11-16T13:31:06Z</time>
      </trkpt>
      <trkpt lat="43.33315" lon="3.22145">
        <ele>18.78</ele>
        <time>2017-11-16T13:31:24Z</time>
      </trkpt>
      <trkpt lat="43.33318" lon="3.2212">
        <ele>16.8</ele>
        <time>2017-11-16T13:31:46Z</time>
      </trkpt>
      <trkpt lat="43.33324" lon="3.22096">
        <ele>16.6</ele>
        <time>2017-11-16T13:32:07Z</time>
      </trkpt>
      <trkpt lat="43.33333" lon="3.22074">
        <ele>11.8</ele>
        <time>2017-11-16T13:32:31Z</time>
      </trkpt>
      <trkpt lat="43.33339" lon="3.22051">
        <ele>10.09</ele>
        <time>2017-11-16T13:32:51Z</time>
      </trkpt>
      <trkpt lat="43.33339" lon="3.22025">
        <ele>10.5</ele>
        <time>2017-11-16T13:33:13Z</time>
      </trkpt>
      <trkpt lat="43.33348" lon="3.22003">
        <ele>10.81</ele>
        <time>2017-11-16T13:33:29Z</time>
      </trkpt>
      <trkpt lat="43.33355" lon="3.2198">
        <ele>15.5</ele>
        <time>2017-11-16T13:33:49Z</time>
      </trkpt>
      <trkpt lat="43.33362" lon="3.21956">
        <ele>12.96</ele>
        <time>2017-11-16T13:34:13Z</time>
      </trkpt>
      <trkpt lat="43.33369" lon="3.21933">
        <ele>10.82</ele>
        <time>2017-11-16T13:34:29Z</time>
      </trkpt>
      <trkpt lat="43.33378" lon="3.21911">
        <ele>8.01</ele>
        <time>2017-11-16T13:34:48Z</time>
      </trkpt>
      <trkpt lat="43.33385" lon="3.21888">
        <ele>14.88</ele>
        <time>2017-11-16T13:35:14Z</time>
      </trkpt>
      <trkpt lat="43.33391" lon="3.21864">
        <ele>14.11</ele>
        <time>2017-11-16T13:35:44Z</time>
      </trkpt>
      <trkpt lat="43.33401" lon="3.21842">
        <ele>10.06</ele>
        <time>2017-11-16T13:36:03Z</time>
      </trkpt>
      <trkpt lat="43.33408" lon="3.21818">
        <ele>11.04</ele>
        <time>2017-11-16T13:36:22Z</time>
      </trkpt>
      <trkpt lat="43.33414" lon="3.21795">
        <ele>13.44</ele>
        <time>2017-11-16T13:36:39Z</time>
      </trkpt>
      <trkpt lat="43.33418" lon="3.2177">
        <ele>15.83</ele>
        <time>2017-11-16T13:37:18Z</time>
      </trkpt>
      <trkpt lat="43.33428" lon="3.21748">
        <ele>9.31</ele>
        <time>2017-11-16T13:37:33Z</time>
      </trkpt>
      <trkpt lat="43.33434" lon="3.21724">
        <ele>10.78</ele>
        <time>2017-11-16T13:37:50Z</time>
      </trkpt>
      <trkpt lat="43.33443" lon="3.21702">
        <ele>12.1</ele>
        <time>2017-11-16T13:38:10Z</time>
      </trkpt>
      <trkpt lat="43.33449" lon="3.21678">
        <ele>15.51</ele>
        <time>2017-11-16T13:38:30Z</time>
      </trkpt>
      <trkpt lat="43.3345" lon="3.21653">
        <ele>15.58</ele>
        <time>2017-11-16T13:38:53Z</time>
      </trkpt>
      <trkpt lat="43.33459" lon="3.21631">
        <ele>11.85</ele>
        <time>2017-11-16T13:39:07Z</time>
      </trkpt>
      <trkpt lat="43.3347" lon="3.2161">
        <ele>13.78</ele>
        <time>2017-11-16T13:39:31Z</time>
      </trkpt>
      <trkpt lat="43.33484" lon="3.21593">
        <ele>18.9</ele>
        <time>2017-11-16T13:39:52Z</time>
      </trkpt>
      <trkpt lat="43.33496" lon="3.21575">
        <ele>22.77</ele>
        <time>2017-11-16T13:40:08Z</time>
      </trkpt>
      <trkpt lat="43.33508" lon="3.21555">
        <ele>23.12</ele>
        <time>2017-11-16T13:40:29Z</time>
      </trkpt>
      <trkpt lat="43.33516" lon="3.21532">
        <ele>22.75</ele>
        <time>2017-11-16T13:40:51Z</time>
      </trkpt>
      <trkpt lat="43.33521" lon="3.21508">
        <ele>22.78</ele>
        <time>2017-11-16T13:41:09Z</time>
      </trkpt>
      <trkpt lat="43.33525" lon="3.21483">
        <ele>21.81</ele>
        <time>2017-11-16T13:41:29Z</time>
      </trkpt>
      <trkpt lat="43.33528" lon="3.21458">
        <ele>21.78</ele>
        <time>2017-11-16T13:41:47Z</time>
      </trkpt>
      <trkpt lat="43.33525" lon="3.21433">
        <ele>23.63</ele>
        <time>2017-11-16T13:42:04Z</time>
      </trkpt>
      <trkpt lat="43.33521" lon="3.21409">
        <ele>19.81</ele>
        <time>2017-11-16T13:42:21Z</time>
      </trkpt>
      <trkpt lat="43.33511" lon="3.21387">
        <ele>19.19</ele>
        <time>2017-11-16T13:42:42Z</time>
      </trkpt>
      <trkpt lat="43.335" lon="3.21364">
        <ele>16.82</ele>
        <time>2017-11-16T13:43:00Z</time>
      </trkpt>
      <trkpt lat="43.33491" lon="3.21342">
        <ele>18.53</ele>
        <time>2017-11-16T13:43:26Z</time>
      </trkpt>
      <trkpt lat="43.3348" lon="3.21322">
        <ele>18.86</ele>
        <time>2017-11-16T13:43:47Z</time>
      </trkpt>
      <trkpt lat="43.33468" lon="3.21303">
        <ele>17.6</ele>
        <time>2017-11-16T13:44:27Z</time>
      </trkpt>
      <trkpt lat="43.33455" lon="3.21285">
        <ele>20.77</ele>
        <time>2017-11-16T13:44:50Z</time>
      </trkpt>
      <trkpt lat="43.33442" lon="3.21265">
        <ele>21.47</ele>
        <time>2017-11-16T13:45:11Z</time>
      </trkpt>
      <trkpt lat="43.33428" lon="3.21249">
        <ele>25.71</ele>
        <time>2017-11-16T13:45:26Z</time>
      </trkpt>
      <trkpt lat="43.33418" lon="3.21227">
        <ele>13.86</ele>
        <time>2017-11-16T13:45:49Z</time>
      </trkpt>
      <trkpt lat="43.33401" lon="3.21217">
        <ele>14.53</ele>
        <time>2017-11-16T13:46:07Z</time>
      </trkpt>
      <trkpt lat="43.33386" lon="3.21201">
        <ele>18.8</ele>
        <time>2017-11-16T13:47:04Z</time>
      </trkpt>
      <trkpt lat="43.33374" lon="3.21183">
        <ele>19.01</ele>
        <time>2017-11-16T13:47:27Z</time>
      </trkpt>
      <trkpt lat="43.33363" lon="3.21162">
        <ele>22.48</ele>
        <time>2017-11-16T13:47:54Z</time>
      </trkpt>
      <trkpt lat="43.3335" lon="3.21142">
        <ele>24.1</ele>
        <time>2017-11-16T13:48:14Z</time>
      </trkpt>
      <trkpt lat="43.33338" lon="3.21122">
        <ele>21.89</ele>
        <time>2017-11-16T13:48:37Z</time>
      </trkpt>
      <trkpt lat="43.33326" lon="3.21103">
        <ele>14.89</ele>
        <time>2017-11-16T13:48:53Z</time>
      </trkpt>
      <trkpt lat="43.33314" lon="3.21084">
        <ele>23.45</ele>
        <time>2017-11-16T13:49:13Z</time>
      </trkpt>
      <trkpt lat="43.33301" lon="3.21066">
        <ele>15.99</ele>
        <time>2017-11-16T13:49:31Z</time>
      </trkpt>
      <trkpt lat="43.33291" lon="3.21046">
        <ele>18.12</ele>
        <time>2017-11-16T13:49:51Z</time>
      </trkpt>
      <trkpt lat="43.33278" lon="3.21028">
        <ele>15.51</ele>
        <time>2017-11-16T13:50:10Z</time>
      </trkpt>
      <trkpt lat="43.33263" lon="3.21011">
        <ele>15.9</ele>
        <time>2017-11-16T13:50:28Z</time>
      </trkpt>
      <trkpt lat="43.33251" lon="3.20992">
        <ele>16.98</ele>
        <time>2017-11-16T13:50:45Z</time>
      </trkpt>
      <trkpt lat="43.33238" lon="3.20972">
        <ele>21.78</ele>
        <time>2017-11-16T13:51:41Z</time>
      </trkpt>
      <trkpt lat="43.33227" lon="3.20953">
        <ele>23.41</ele>
        <time>2017-11-16T13:51:58Z</time>
      </trkpt>
      <trkpt lat="43.33214" lon="3.20934">
        <ele>21.62</ele>
        <time>2017-11-16T13:52:16Z</time>
      </trkpt>
      <trkpt lat="43.33204" lon="3.20913">
        <ele>22.01</ele>
        <time>2017-11-16T13:52:34Z</time>
      </trkpt>
      <trkpt lat="43.33193" lon="3.20892">
        <ele>22.74</ele>
        <time>2017-11-16T13:52:51Z</time>
      </trkpt>
      <trkpt lat="43.3318" lon="3.20872">
        <ele>22.57</ele>
        <time>2017-11-16T13:53:08Z</time>
      </trkpt>
      <trkpt lat="43.33172" lon="3.20849">
        <ele>20.72</ele>
        <time>2017-11-16T13:53:24Z</time>
      </trkpt>
      <trkpt lat="43.33161" lon="3.2083">
        <ele>19.74</ele>
        <time>2017-11-16T13:53:42Z</time>
      </trkpt>
      <trkpt lat="43.33152" lon="3.20807">
        <ele>21.98</ele>
        <time>2017-11-16T13:54:08Z</time>
      </trkpt>
      <trkpt lat="43.33145" lon="3.20783">
        <ele>20.73</ele>
        <time>2017-11-16T13:54:25Z</time>
      </trkpt>
      <trkpt lat="43.33137" lon="3.2076">
        <ele>19.5</ele>
        <time>2017-11-16T13:54:43Z</time>
      </trkpt>
      <trkpt lat="43.33128" lon="3.20737">
        <ele>16.19</ele>
        <time>2017-11-16T13:54:58Z</time>
      </trkpt>
      <trkpt lat="43.3312" lon="3.20715">
        <ele>18.78</ele>
        <time>2017-11-16T13:55:18Z</time>
      </trkpt>
      <trkpt lat="43.33111" lon="3.20693">
        <ele>20.41</ele>
        <time>2017-11-16T13:55:32Z</time>
      </trkpt>
      <trkpt lat="43.33103" lon="3.2067">
        <ele>25.07</ele>
        <time>2017-11-16T13:55:55Z</time>
      </trkpt>
      <trkpt lat="43.33097" lon="3.20645">
        <ele>20.83</ele>
        <time>2017-11-16T13:56:08Z</time>
      </trkpt>
      <trkpt lat="43.33089" lon="3.20622">
        <ele>16.63</ele>
        <time>2017-11-16T13:56:28Z</time>
      </trkpt>
      <trkpt lat="43.33082" lon="3.20597">
        <ele>14.89</ele>
        <time>2017-11-16T13:56:45Z</time>
      </trkpt>
      <trkpt lat="43.33075" lon="3.20574">
        <ele>17.71</ele>
        <time>2017-11-16T13:57:02Z</time>
      </trkpt>
      <trkpt lat="43.33068" lon="3.20549">
        <ele>19.66</ele>
        <time>2017-11-16T13:57:23Z</time>
      </trkpt>
      <trkpt lat="43.33062" lon="3.20526">
        <ele>16.17</ele>
        <time>2017-11-16T13:57:46Z</time>
      </trkpt>
      <trkpt lat="43.33058" lon="3.20501">
        <ele>16.1</ele>
        <time>2017-11-16T13:58:02Z</time>
      </trkpt>
      <trkpt lat="43.3305" lon="3.20478">
        <ele>15.42</ele>
        <time>2017-11-16T13:58:19Z</time>
      </trkpt>
      <trkpt lat="43.33048" lon="3.20453">
        <ele>11.98</ele>
        <time>2017-11-16T13:58:38Z</time>
      </trkpt>
      <trkpt lat="43.33045" lon="3.20429">
        <ele>11.78</ele>
        <time>2017-11-16T13:58:59Z</time>
      </trkpt>
      <trkpt lat="43.33046" lon="3.20403">
        <ele>9.53</ele>
        <time>2017-11-16T13:59:17Z</time>
      </trkpt>
      <trkpt lat="43.33045" lon="3.20378">
        <ele>6.14</ele>
        <time>2017-11-16T13:59:36Z</time>
      </trkpt>
      <trkpt lat="43.33039" lon="3.20355">
        <ele>10.89</ele>
        <time>2017-11-16T13:59:53Z</time>
      </trkpt>
      <trkpt lat="43.33033" lon="3.20329">
        <ele>14.48</ele>
        <time>2017-11-16T14:00:11Z</time>
      </trkpt>
      <trkpt lat="43.33032" lon="3.20304">
        <ele>15.19</ele>
        <time>2017-11-16T14:00:28Z</time>
      </trkpt>
      <trkpt lat="43.33033" lon="3.20278">
        <ele>13.5</ele>
        <time>2017-11-16T14:00:45Z</time>
      </trkpt>
      <trkpt lat="43.33042" lon="3.20256">
        <ele>13.7</ele>
        <time>2017-11-16T14:03:31Z</time>
      </trkpt>
      <trkpt lat="43.33047" lon="3.20231">
        <ele>16.9</ele>
        <time>2017-11-16T14:03:56Z</time>
      </trkpt>
      <trkpt lat="43.33055" lon="3.20208">
        <ele>16.83</ele>
        <time>2017-11-16T14:05:32Z</time>
      </trkpt>
      <trkpt lat="43.33051" lon="3.20184">
        <ele>21.83</ele>
        <time>2017-11-16T14:06:47Z</time>
      </trkpt>
      <trkpt lat="43.33058" lon="3.2016">
        <ele>20.98</ele>
        <time>2017-11-16T14:07:03Z</time>
      </trkpt>
      <trkpt lat="43.33065" lon="3.20136">
        <ele>21.43</ele>
        <time>2017-11-16T14:07:18Z</time>
      </trkpt>
      <trkpt lat="43.33071" lon="3.20112">
        <ele>24.83</ele>
        <time>2017-11-16T14:08:24Z</time>
      </trkpt>
      <trkpt lat="43.33063" lon="3.20088">
        <ele>23.89</ele>
        <time>2017-11-16T14:09:41Z</time>
      </trkpt>
      <trkpt lat="43.33054" lon="3.20066">
        <ele>21.8</ele>
        <time>2017-11-16T14:09:59Z</time>
      </trkpt>
      <trkpt lat="43.33051" lon="3.2004">
        <ele>21.81</ele>
        <time>2017-11-16T14:10:22Z</time>
      </trkpt>
      <trkpt lat="43.33039" lon="3.20021">
        <ele>27.08</ele>
        <time>2017-11-16T14:10:41Z</time>
      </trkpt>
      <trkpt lat="43.33054" lon="3.20007">
        <ele>25.81</ele>
        <time>2017-11-16T14:12:11Z</time>
      </trkpt>
      <trkpt lat="43.33067" lon="3.20024">
        <ele>26.73</ele>
        <time>2017-11-16T14:15:11Z</time>
      </trkpt>
      <trkpt lat="43.33059" lon="3.20046">
        <ele>21.91</ele>
        <time>2017-11-16T14:16:02Z</time>
      </trkpt>
      <trkpt lat="43.33071" lon="3.20065">
        <ele>19.58</ele>
        <time>2017-11-16T14:16:27Z</time>
      </trkpt>
      <trkpt lat="43.33081" lon="3.20086">
        <ele>20.18</ele>
        <time>2017-11-16T14:17:12Z</time>
      </trkpt>
      <trkpt lat="43.33085" lon="3.20111">
        <ele>22.44</ele>
        <time>2017-11-16T14:17:29Z</time>
      </trkpt>
      <trkpt lat="43.33078" lon="3.20134">
        <ele>18.53</ele>
        <time>2017-11-16T14:17:54Z</time>
      </trkpt>
      <trkpt lat="43.33069" lon="3.20158">
        <ele>19.8</ele>
        <time>2017-11-16T14:18:12Z</time>
      </trkpt>
      <trkpt lat="43.33061" lon="3.20181">
        <ele>22.78</ele>
        <time>2017-11-16T14:18:34Z</time>
      </trkpt>
      <trkpt lat="43.33078" lon="3.20189">
        <ele>16.71</ele>
        <time>2017-11-16T14:19:40Z</time>
      </trkpt>
      <trkpt lat="43.33087" lon="3.20167">
        <ele>17.51</ele>
        <time>2017-11-16T14:21:04Z</time>
      </trkpt>
      <trkpt lat="43.33094" lon="3.20144">
        <ele>17.41</ele>
        <time>2017-11-16T14:21:21Z</time>
      </trkpt>
      <trkpt lat="43.33103" lon="3.20123">
        <ele>15.98</ele>
        <time>2017-11-16T14:21:41Z</time>
      </trkpt>
      <trkpt lat="43.33117" lon="3.20106">
        <ele>11.8</ele>
        <time>2017-11-16T14:22:15Z</time>
      </trkpt>
      <trkpt lat="43.33115" lon="3.2008">
        <ele>14.8</ele>
        <time>2017-11-16T14:22:37Z</time>
      </trkpt>
      <trkpt lat="43.33106" lon="3.20058">
        <ele>15.87</ele>
        <time>2017-11-16T14:23:29Z</time>
      </trkpt>
      <trkpt lat="43.33097" lon="3.20036">
        <ele>19.59</ele>
        <time>2017-11-16T14:23:45Z</time>
      </trkpt>
      <trkpt lat="43.33091" lon="3.20013">
        <ele>21.82</ele>
        <time>2017-11-16T14:24:06Z</time>
      </trkpt>
      <trkpt lat="43.3308" lon="3.19991">
        <ele>19.26</ele>
        <time>2017-11-16T14:24:21Z</time>
      </trkpt>
      <trkpt lat="43.33071" lon="3.19969">
        <ele>23.79</ele>
        <time>2017-11-16T14:24:38Z</time>
      </trkpt>
      <trkpt lat="43.33062" lon="3.19946">
        <ele>26.74</ele>
        <time>2017-11-16T14:24:57Z</time>
      </trkpt>
      <trkpt lat="43.33053" lon="3.19923">
        <ele>28.62</ele>
        <time>2017-11-16T14:25:22Z</time>
      </trkpt>
      <trkpt lat="43.33048" lon="3.19899">
        <ele>27.8</ele>
        <time>2017-11-16T14:25:43Z</time>
      </trkpt>
      <trkpt lat="43.33038" lon="3.19878">
        <ele>31.74</ele>
        <time>2017-11-16T14:26:09Z</time>
      </trkpt>
      <trkpt lat="43.33026" lon="3.19859">
        <ele>30.89</ele>
        <time>2017-11-16T14:27:34Z</time>
      </trkpt>
      <trkpt lat="43.33038" lon="3.19877">
        <ele>32.88</ele>
        <time>2017-11-16T14:29:59Z</time>
      </trkpt>
      <trkpt lat="43.33049" lon="3.19897">
        <ele>33.8</ele>
        <time>2017-11-16T14:32:47Z</time>
      </trkpt>
      <trkpt lat="43.33053" lon="3.19922">
        <ele>27.01</ele>
        <time>2017-11-16T14:33:10Z</time>
      </trkpt>
      <trkpt lat="43.33063" lon="3.19942">
        <ele>23.81</ele>
        <time>2017-11-16T14:35:00Z</time>
      </trkpt>
      <trkpt lat="43.33072" lon="3.19965">
        <ele>23.77</ele>
        <time>2017-11-16T14:36:27Z</time>
      </trkpt>
      <trkpt lat="43.33079" lon="3.19988">
        <ele>24.8</ele>
        <time>2017-11-16T14:38:33Z</time>
      </trkpt>
      <trkpt lat="43.33089" lon="3.2001">
        <ele>18.1</ele>
        <time>2017-11-16T14:40:13Z</time>
      </trkpt>
      <trkpt lat="43.33099" lon="3.20031">
        <ele>17.48</ele>
        <time>2017-11-16T14:40:27Z</time>
      </trkpt>
      <trkpt lat="43.33107" lon="3.20054">
        <ele>16.8</ele>
        <time>2017-11-16T14:41:08Z</time>
      </trkpt>
      <trkpt lat="43.33118" lon="3.20076">
        <ele>14.99</ele>
        <time>2017-11-16T14:42:23Z</time>
      </trkpt>
      <trkpt lat="43.33127" lon="3.20099">
        <ele>11.93</ele>
        <time>2017-11-16T14:42:37Z</time>
      </trkpt>
      <trkpt lat="43.33135" lon="3.20124">
        <ele>9.43</ele>
        <time>2017-11-16T14:42:55Z</time>
      </trkpt>
      <trkpt lat="43.33144" lon="3.20147">
        <ele>9.95</ele>
        <time>2017-11-16T14:43:08Z</time>
      </trkpt>
      <trkpt lat="43.33152" lon="3.20171">
        <ele>9.57</ele>
        <time>2017-11-16T14:43:26Z</time>
      </trkpt>
      <trkpt lat="43.33164" lon="3.20191">
        <ele>6.14</ele>
        <time>2017-11-16T14:44:38Z</time>
      </trkpt>
      <trkpt lat="43.3317" lon="3.20215">
        <ele>3.19</ele>
        <time>2017-11-16T14:44:58Z</time>
      </trkpt>
      <trkpt lat="43.33179" lon="3.20238">
        <ele>4.6</ele>
        <time>2017-11-16T14:45:17Z</time>
      </trkpt>
      <trkpt lat="43.33185" lon="3.20262">
        <ele>1.8</ele>
        <time>2017-11-16T14:45:36Z</time>
      </trkpt>
      <trkpt lat="43.33196" lon="3.20283">
        <ele>3.8</ele>
        <time>2017-11-16T14:45:57Z</time>
      </trkpt>
      <trkpt lat="43.33205" lon="3.20307">
        <ele>1.8</ele>
        <time>2017-11-16T14:46:19Z</time>
      </trkpt>
      <trkpt lat="43.33216" lon="3.20328">
        <ele>1.88</ele>
        <time>2017-11-16T14:46:34Z</time>
      </trkpt>
      <trkpt lat="43.33225" lon="3.2035">
        <ele>2.78</ele>
        <time>2017-11-16T14:46:52Z</time>
      </trkpt>
      <trkpt lat="43.33234" lon="3.20371">
        <ele>1.48</ele>
        <time>2017-11-16T14:47:12Z</time>
      </trkpt>
      <trkpt lat="43.33245" lon="3.20392">
        <ele>3.77</ele>
        <time>2017-11-16T14:47:26Z</time>
      </trkpt>
      <trkpt lat="43.33257" lon="3.20411">
        <ele>7.42</ele>
        <time>2017-11-16T14:47:52Z</time>
      </trkpt>
      <trkpt lat="43.33269" lon="3.20431">
        <ele>8.89</ele>
        <time>2017-11-16T14:48:08Z</time>
      </trkpt>
      <trkpt lat="43.3328" lon="3.20451">
        <ele>7.71</ele>
        <time>2017-11-16T14:48:29Z</time>
      </trkpt>
      <trkpt lat="43.33294" lon="3.20467">
        <ele>9.88</ele>
        <time>2017-11-16T14:48:45Z</time>
      </trkpt>
      <trkpt lat="43.33307" lon="3.20487">
        <ele>12.49</ele>
        <time>2017-11-16T14:49:01Z</time>
      </trkpt>
      <trkpt lat="43.3332" lon="3.20505">
        <ele>11.81</ele>
        <time>2017-11-16T14:49:18Z</time>
      </trkpt>
      <trkpt lat="43.33334" lon="3.20522">
        <ele>15.82</ele>
        <time>2017-11-16T14:49:37Z</time>
      </trkpt>
      <trkpt lat="43.33348" lon="3.2054">
        <ele>13.82</ele>
        <time>2017-11-16T14:49:53Z</time>
      </trkpt>
      <trkpt lat="43.33361" lon="3.2056">
        <ele>9.71</ele>
        <time>2017-11-16T14:50:08Z</time>
      </trkpt>
      <trkpt lat="43.33377" lon="3.20573">
        <ele>11.71</ele>
        <time>2017-11-16T14:50:24Z</time>
      </trkpt>
      <trkpt lat="43.33389" lon="3.20591">
        <ele>6.84</ele>
        <time>2017-11-16T14:50:41Z</time>
      </trkpt>
      <trkpt lat="43.33402" lon="3.20609">
        <ele>10.88</ele>
        <time>2017-11-16T14:50:59Z</time>
      </trkpt>
      <trkpt lat="43.33416" lon="3.20626">
        <ele>11.5</ele>
        <time>2017-11-16T14:51:18Z</time>
      </trkpt>
      <trkpt lat="43.33429" lon="3.20644">
        <ele>12.87</ele>
        <time>2017-11-16T14:51:33Z</time>
      </trkpt>
      <trkpt lat="43.33444" lon="3.20657">
        <ele>9.89</ele>
        <time>2017-11-16T14:51:46Z</time>
      </trkpt>
      <trkpt lat="43.33457" lon="3.20675">
        <ele>11.89</ele>
        <time>2017-11-16T14:52:02Z</time>
      </trkpt>
      <trkpt lat="43.33468" lon="3.20697">
        <ele>6.9</ele>
        <time>2017-11-16T14:52:19Z</time>
      </trkpt>
      <trkpt lat="43.33485" lon="3.20709">
        <ele>4.35</ele>
        <time>2017-11-16T14:52:46Z</time>
      </trkpt>
      <trkpt lat="43.33496" lon="3.20728">
        <ele>2.88</ele>
        <time>2017-11-16T14:53:11Z</time>
      </trkpt>
      <trkpt lat="43.33509" lon="3.20747">
        <ele>1.25</ele>
        <time>2017-11-16T14:53:31Z</time>
      </trkpt>
      <trkpt lat="43.33522" lon="3.20765">
        <ele>5.8</ele>
        <time>2017-11-16T14:53:48Z</time>
      </trkpt>
      <trkpt lat="43.33531" lon="3.20788">
        <ele>-2.23</ele>
        <time>2017-11-16T14:54:06Z</time>
      </trkpt>
      <trkpt lat="43.33543" lon="3.20807">
        <ele>3.77</ele>
        <time>2017-11-16T14:54:18Z</time>
      </trkpt>
      <trkpt lat="43.3356" lon="3.20821">
        <ele>4.86</ele>
        <time>2017-11-16T14:54:44Z</time>
      </trkpt>
      <trkpt lat="43.33577" lon="3.20833">
        <ele>9.05</ele>
        <time>2017-11-16T14:54:59Z</time>
      </trkpt>
      <trkpt lat="43.33591" lon="3.2085">
        <ele>4.44</ele>
        <time>2017-11-16T14:55:17Z</time>
      </trkpt>
      <trkpt lat="43.33603" lon="3.2087">
        <ele>2.51</ele>
        <time>2017-11-16T14:55:36Z</time>
      </trkpt>
      <trkpt lat="43.33613" lon="3.20891">
        <ele>5.53</ele>
        <time>2017-11-16T14:56:01Z</time>
      </trkpt>
      <trkpt lat="43.33623" lon="3.20912">
        <ele>6.79</ele>
        <time>2017-11-16T14:56:16Z</time>
      </trkpt>
      <trkpt lat="43.33635" lon="3.20932">
        <ele>1.81</ele>
        <time>2017-11-16T14:56:32Z</time>
      </trkpt>
      <trkpt lat="43.33646" lon="3.20952">
        <ele>0.73</ele>
        <time>2017-11-16T14:57:00Z</time>
      </trkpt>
      <trkpt lat="43.33653" lon="3.20977">
        <ele>-0.75</ele>
        <time>2017-11-16T14:57:15Z</time>
      </trkpt>
      <trkpt lat="43.33671" lon="3.20977">
        <ele>1.11</ele>
        <time>2017-11-16T14:59:49Z</time>
      </trkpt>
      <trkpt lat="43.33687" lon="3.20965">
        <ele>3.71</ele>
        <time>2017-11-16T15:00:06Z</time>
      </trkpt>
      <trkpt lat="43.33703" lon="3.20949">
        <ele>7.98</ele>
        <time>2017-11-16T15:00:31Z</time>
      </trkpt>
      <trkpt lat="43.33714" lon="3.2093">
        <ele>7.89</ele>
        <time>2017-11-16T15:01:02Z</time>
      </trkpt>
      <trkpt lat="43.33731" lon="3.20918">
        <ele>6.8</ele>
        <time>2017-11-16T15:01:23Z</time>
      </trkpt>
      <trkpt lat="43.33746" lon="3.20907">
        <ele>6.42</ele>
        <time>2017-11-16T15:01:36Z</time>
      </trkpt>
      <trkpt lat="43.3376" lon="3.20889">
        <ele>8.89</ele>
        <time>2017-11-16T15:01:54Z</time>
      </trkpt>
      <trkpt lat="43.33773" lon="3.20871">
        <ele>5.23</ele>
        <time>2017-11-16T15:02:22Z</time>
      </trkpt>
      <trkpt lat="43.33786" lon="3.20852">
        <ele>5.82</ele>
        <time>2017-11-16T15:02:33Z</time>
      </trkpt>
      <trkpt lat="43.33802" lon="3.20839">
        <ele>4.04</ele>
        <time>2017-11-16T15:02:50Z</time>
      </trkpt>
      <trkpt lat="43.33818" lon="3.20827">
        <ele>3.84</ele>
        <time>2017-11-16T15:03:24Z</time>
      </trkpt>
      <trkpt lat="43.33834" lon="3.20815">
        <ele>5.39</ele>
        <time>2017-11-16T15:03:31Z</time>
      </trkpt>
      <trkpt lat="43.33851" lon="3.20802">
        <ele>11.38</ele>
        <time>2017-11-16T15:03:52Z</time>
      </trkpt>
      <trkpt lat="43.33864" lon="3.20785">
        <ele>12.59</ele>
        <time>2017-11-16T15:04:05Z</time>
      </trkpt>
      <trkpt lat="43.33878" lon="3.20769">
        <ele>13.69</ele>
        <time>2017-11-16T15:04:22Z</time>
      </trkpt>
      <trkpt lat="43.33891" lon="3.2075">
        <ele>13.5</ele>
        <time>2017-11-16T15:04:39Z</time>
      </trkpt>
      <trkpt lat="43.33899" lon="3.20727">
        <ele>7.86</ele>
        <time>2017-11-16T15:04:58Z</time>
      </trkpt>
      <trkpt lat="43.33897" lon="3.20701">
        <ele>13.09</ele>
        <time>2017-11-16T15:05:15Z</time>
      </trkpt>
      <trkpt lat="43.33892" lon="3.20677">
        <ele>10.8</ele>
        <time>2017-11-16T15:05:30Z</time>
      </trkpt>
      <trkpt lat="43.33885" lon="3.20654">
        <ele>9.19</ele>
        <time>2017-11-16T15:05:45Z</time>
      </trkpt>
      <trkpt lat="43.33885" lon="3.20628">
        <ele>9.86</ele>
        <time>2017-11-16T15:06:05Z</time>
      </trkpt>
      <trkpt lat="43.33882" lon="3.20652">
        <ele>14.8</ele>
        <time>2017-11-16T15:07:08Z</time>
      </trkpt>
      <trkpt lat="43.33888" lon="3.20676">
        <ele>11.16</ele>
        <time>2017-11-16T15:09:10Z</time>
      </trkpt>
      <trkpt lat="43.33896" lon="3.20699">
        <ele>4.81</ele>
        <time>2017-11-16T15:10:16Z</time>
      </trkpt>
      <trkpt lat="43.33902" lon="3.20723">
        <ele>9.71</ele>
        <time>2017-11-16T15:10:33Z</time>
      </trkpt>
      <trkpt lat="43.33908" lon="3.20747">
        <ele>11.11</ele>
        <time>2017-11-16T15:10:49Z</time>
      </trkpt>
      <trkpt lat="43.33916" lon="3.2077">
        <ele>11.05</ele>
        <time>2017-11-16T15:11:07Z</time>
      </trkpt>
      <trkpt lat="43.33925" lon="3.20792">
        <ele>13.78</ele>
        <time>2017-11-16T15:11:23Z</time>
      </trkpt>
      <trkpt lat="43.33934" lon="3.20815">
        <ele>16.01</ele>
        <time>2017-11-16T15:11:59Z</time>
      </trkpt>
      <trkpt lat="43.33944" lon="3.20837">
        <ele>16.87</ele>
        <time>2017-11-16T15:12:18Z</time>
      </trkpt>
      <trkpt lat="43.33952" lon="3.20862">
        <ele>17</ele>
        <time>2017-11-16T15:12:35Z</time>
      </trkpt>
      <trkpt lat="43.33958" lon="3.20885">
        <ele>15.87</ele>
        <time>2017-11-16T15:12:50Z</time>
      </trkpt>
      <trkpt lat="43.33969" lon="3.20906">
        <ele>12.5</ele>
        <time>2017-11-16T15:13:07Z</time>
      </trkpt>
      <trkpt lat="43.33987" lon="3.20899">
        <ele>6.78</ele>
        <time>2017-11-16T15:13:41Z</time>
      </trkpt>
      <trkpt lat="43.34003" lon="3.20885">
        <ele>29.89</ele>
        <time>2017-11-16T15:14:13Z</time>
      </trkpt>
      <trkpt lat="43.34019" lon="3.20873">
        <ele>13.72</ele>
        <time>2017-11-16T15:14:23Z</time>
      </trkpt>
      <trkpt lat="43.34037" lon="3.20863">
        <ele>13.71</ele>
        <time>2017-11-16T15:14:37Z</time>
      </trkpt>
      <trkpt lat="43.34055" lon="3.20853">
        <ele>15.11</ele>
        <time>2017-11-16T15:14:51Z</time>
      </trkpt>
      <trkpt lat="43.34072" lon="3.20845">
        <ele>23</ele>
        <time>2017-11-16T15:15:02Z</time>
      </trkpt>
      <trkpt lat="43.3409" lon="3.20847">
        <ele>15.84</ele>
        <time>2017-11-16T15:15:20Z</time>
      </trkpt>
      <trkpt lat="43.34109" lon="3.20842">
        <ele>14.54</ele>
        <time>2017-11-16T15:15:39Z</time>
      </trkpt>
      <trkpt lat="43.34127" lon="3.20848">
        <ele>16.69</ele>
        <time>2017-11-16T15:15:54Z</time>
      </trkpt>
      <trkpt lat="43.34146" lon="3.20846">
        <ele>19.06</ele>
        <time>2017-11-16T15:16:10Z</time>
      </trkpt>
      <trkpt lat="43.34165" lon="3.20841">
        <ele>13.72</ele>
        <time>2017-11-16T15:16:28Z</time>
      </trkpt>
      <trkpt lat="43.34183" lon="3.20842">
        <ele>16.1</ele>
        <time>2017-11-16T15:16:46Z</time>
      </trkpt>
      <trkpt lat="43.342" lon="3.2085">
        <ele>23.38</ele>
        <time>2017-11-16T15:17:05Z</time>
      </trkpt>
      <trkpt lat="43.34219" lon="3.20842">
        <ele>23.04</ele>
        <time>2017-11-16T15:17:16Z</time>
      </trkpt>
      <trkpt lat="43.34238" lon="3.20834">
        <ele>25.69</ele>
        <time>2017-11-16T15:17:33Z</time>
      </trkpt>
      <trkpt lat="43.34256" lon="3.20831">
        <ele>23.33</ele>
        <time>2017-11-16T15:17:52Z</time>
      </trkpt>
      <trkpt lat="43.34275" lon="3.20833">
        <ele>26.71</ele>
        <time>2017-11-16T15:18:09Z</time>
      </trkpt>
      <trkpt lat="43.34293" lon="3.20829">
        <ele>21.77</ele>
        <time>2017-11-16T15:18:23Z</time>
      </trkpt>
      <trkpt lat="43.3431" lon="3.20819">
        <ele>25.22</ele>
        <time>2017-11-16T15:18:36Z</time>
      </trkpt>
      <trkpt lat="43.34328" lon="3.20815">
        <ele>22.72</ele>
        <time>2017-11-16T15:18:49Z</time>
      </trkpt>
      <trkpt lat="43.34345" lon="3.20824">
        <ele>18.72</ele>
        <time>2017-11-16T15:20:10Z</time>
      </trkpt>
      <trkpt lat="43.34363" lon="3.20831">
        <ele>17.89</ele>
        <time>2017-11-16T15:20:35Z</time>
      </trkpt>
      <trkpt lat="43.3438" lon="3.20842">
        <ele>19.59</ele>
        <time>2017-11-16T15:21:04Z</time>
      </trkpt>
      <trkpt lat="43.3439" lon="3.20819">
        <ele>17.22</ele>
        <time>2017-11-16T15:22:02Z</time>
      </trkpt>
      <trkpt lat="43.34406" lon="3.20804">
        <ele>13.79</ele>
        <time>2017-11-16T15:22:19Z</time>
      </trkpt>
      <trkpt lat="43.34425" lon="3.20802">
        <ele>11.78</ele>
        <time>2017-11-16T15:22:39Z</time>
      </trkpt>
      <trkpt lat="43.34443" lon="3.20806">
        <ele>16.68</ele>
        <time>2017-11-16T15:22:59Z</time>
      </trkpt>
      <trkpt lat="43.34462" lon="3.20808">
        <ele>18.83</ele>
        <time>2017-11-16T15:23:21Z</time>
      </trkpt>
      <trkpt lat="43.3448" lon="3.20814">
        <ele>19.74</ele>
        <time>2017-11-16T15:23:37Z</time>
      </trkpt>
      <trkpt lat="43.34498" lon="3.20818">
        <ele>27.8</ele>
        <time>2017-11-16T15:23:54Z</time>
      </trkpt>
      <trkpt lat="43.34516" lon="3.20813">
        <ele>22.37</ele>
        <time>2017-11-16T15:24:16Z</time>
      </trkpt>
      <trkpt lat="43.34528" lon="3.20835">
        <ele>13.92</ele>
        <time>2017-11-16T15:24:33Z</time>
      </trkpt>
      <trkpt lat="43.34537" lon="3.20857">
        <ele>12.52</ele>
        <time>2017-11-16T15:24:47Z</time>
      </trkpt>
      <trkpt lat="43.34554" lon="3.20869">
        <ele>12.4</ele>
        <time>2017-11-16T15:25:03Z</time>
      </trkpt>
      <trkpt lat="43.3457" lon="3.20882">
        <ele>15.68</ele>
        <time>2017-11-16T15:25:20Z</time>
      </trkpt>
      <trkpt lat="43.34587" lon="3.20892">
        <ele>21.69</ele>
        <time>2017-11-16T15:25:57Z</time>
      </trkpt>
      <trkpt lat="43.34599" lon="3.20911">
        <ele>18.92</ele>
        <time>2017-11-16T15:26:31Z</time>
      </trkpt>
      <trkpt lat="43.3458" lon="3.20897">
        <ele>12.8</ele>
        <time>2017-11-16T15:31:08Z</time>
      </trkpt>
      <trkpt lat="43.34567" lon="3.2088">
        <ele>11.28</ele>
        <time>2017-11-16T15:31:16Z</time>
      </trkpt>
      <trkpt lat="43.34584" lon="3.20865">
        <ele>10.03</ele>
        <time>2017-11-16T15:31:29Z</time>
      </trkpt>
    </trkseg>
  </trk>
</gpx>